createdAt,value
2017-08-23T00:00:54.863Z,87.6
2017-08-23T00:01:54.064Z,87.7
2017-08-23T00:02:53.642Z,87.8
2017-08-23T00:03:52.843Z,87.8
2017-08-23T00:04:51.917Z,87.9
2017-08-23T00:05:51.112Z,87.8
2017-08-23T00:06:50.302Z,87.7
2017-08-23T00:07:49.518Z,87.8
2017-08-23T00:08:48.583Z,88.2
2017-08-23T00:09:47.825Z,88.4
2017-08-23T00:10:47.029Z,88.6
2017-08-23T00:11:46.219Z,88.4
2017-08-23T00:12:45.429Z,88.5
2017-08-23T00:13:44.627Z,88.4
2017-08-23T00:14:43.704Z,88.7
2017-08-23T00:15:43.160Z,88.6
2017-08-23T00:17:41.270Z,89
2017-08-23T00:18:40.344Z,88.7
2017-08-23T00:19:39.423Z,88.9
2017-08-23T00:20:39.127Z,89.2
2017-08-23T00:21:38.315Z,88.8
2017-08-23T00:22:37.393Z,88.7
2017-08-23T00:23:07.907Z,88.7
2017-08-23T00:23:38.293Z,88.9
2017-08-23T00:24:08.681Z,88.9
2017-08-23T00:25:35.063Z,89.5
2017-08-23T00:26:34.141Z,89.3
2017-08-23T00:27:33.203Z,89.3
2017-08-23T00:28:32.394Z,89.2
2017-08-23T00:30:30.974Z,89
2017-08-23T00:31:30.165Z,89.5
2017-08-23T00:32:29.361Z,89.4
2017-08-23T00:33:28.562Z,89.3
2017-08-23T00:34:27.756Z,89.6
2017-08-23T00:35:26.946Z,89.6
2017-08-23T00:36:26.142Z,89.6
2017-08-23T00:37:25.337Z,89.5
2017-08-23T00:38:24.532Z,89.9
2017-08-23T00:39:23.612Z,89.8
2017-08-23T00:40:22.808Z,90
2017-08-23T00:41:21.998Z,90.2
2017-08-23T00:42:21.079Z,90.1
2017-08-23T00:43:20.536Z,89.8
2017-08-23T00:44:19.705Z,90
2017-08-23T00:45:18.788Z,90
2017-08-23T00:46:17.988Z,90
2017-08-23T00:48:16.064Z,90.5
2017-08-23T00:49:15.288Z,90.5
2017-08-23T00:50:14.359Z,90.5
2017-08-23T00:51:13.557Z,90.6
2017-08-23T00:52:14.193Z,90.5
2017-08-23T00:53:12.253Z,90.7
2017-08-23T00:54:11.199Z,90.6
2017-08-23T00:55:10.536Z,90.9
2017-08-23T00:56:09.612Z,91.4
2017-08-23T00:58:08.083Z,90.9
2017-08-23T01:00:06.352Z,91.1
2017-08-23T01:01:05.312Z,91
2017-08-23T01:02:05.018Z,91.1
2017-08-23T01:03:03.975Z,91.5
2017-08-23T01:04:03.178Z,91.6
2017-08-23T01:05:02.374Z,91.6
2017-08-23T01:06:01.455Z,91.5
2017-08-23T01:07:00.539Z,91.3
2017-08-23T01:07:59.735Z,91.3
2017-08-23T01:08:58.929Z,91.9
2017-08-23T01:09:58.001Z,91.7
2017-08-23T01:10:57.689Z,91.7
2017-08-23T01:12:55.770Z,91.7
2017-08-23T01:13:54.969Z,91.6
2017-08-23T01:14:54.153Z,91.7
2017-08-23T01:15:53.336Z,91.9
2017-08-23T01:16:52.789Z,91.8
2017-08-23T01:17:23.198Z,91.8
2017-08-23T01:18:50.962Z,91.6
2017-08-23T01:19:49.800Z,91.9
2017-08-23T01:20:49.386Z,91.9
2017-08-23T01:21:48.355Z,91.8
2017-08-23T01:22:47.861Z,91.5
2017-08-23T01:23:46.956Z,91.7
2017-08-23T01:24:46.161Z,91.9
2017-08-23T01:25:45.377Z,91.7
2017-08-23T01:26:44.582Z,91.9
2017-08-23T01:27:43.413Z,91.9
2017-08-23T01:28:42.985Z,92
2017-08-23T01:29:42.067Z,92.1
2017-08-23T01:30:41.149Z,91.8
2017-08-23T01:31:40.152Z,91.7
2017-08-23T01:32:39.221Z,91.9
2017-08-23T01:33:38.675Z,92
2017-08-23T01:34:37.755Z,92.1
2017-08-23T01:35:36.823Z,92
2017-08-23T01:36:36.402Z,92.3
2017-08-23T01:37:35.475Z,92.1
2017-08-23T01:38:34.552Z,92.4
2017-08-23T01:39:33.766Z,92.5
2017-08-23T01:40:32.958Z,92.6
2017-08-23T01:41:32.031Z,92.4
2017-08-23T01:42:31.238Z,92.2
2017-08-23T01:43:30.431Z,92.1
2017-08-23T01:44:29.494Z,91.9
2017-08-23T01:45:28.714Z,91.9
2017-08-23T01:46:27.920Z,92
2017-08-23T01:47:27.124Z,91.9
2017-08-23T01:47:57.509Z,91.9
2017-08-23T01:48:28.282Z,92.1
2017-08-23T01:48:58.799Z,92.1
2017-08-23T01:49:29.305Z,91.8
2017-08-23T01:49:59.814Z,91.8
2017-08-23T01:51:24.046Z,91.5
2017-08-23T01:52:23.238Z,91.4
2017-08-23T01:53:22.988Z,91.4
2017-08-23T01:54:21.681Z,91.7
2017-08-23T01:55:20.883Z,91.9
2017-08-23T01:56:20.076Z,91.8
2017-08-23T01:57:19.154Z,91.9
2017-08-23T01:58:18.347Z,91.8
2017-08-23T01:59:17.410Z,92.1
2017-08-23T02:00:16.604Z,92.3
2017-08-23T02:01:15.790Z,92.4
2017-08-23T02:02:15.000Z,92.4
2017-08-23T02:03:14.096Z,92.5
2017-08-23T02:04:13.171Z,92.4
2017-08-23T02:05:12.120Z,92.3
2017-08-23T02:06:11.585Z,92
2017-08-23T02:07:10.665Z,91.8
2017-08-23T02:08:09.851Z,91.9
2017-08-23T02:09:08.920Z,91.8
2017-08-23T02:10:08.117Z,91.7
2017-08-23T02:11:07.307Z,91.9
2017-08-23T02:12:06.497Z,91.9
2017-08-23T02:13:06.078Z,91.6
2017-08-23T02:14:05.270Z,91.6
2017-08-23T02:15:04.482Z,91.5
2017-08-23T02:16:03.166Z,92
2017-08-23T02:17:02.360Z,91.6
2017-08-23T02:18:01.457Z,91.2
2017-08-23T02:19:01.153Z,91.1
2017-08-23T02:20:00.344Z,91
2017-08-23T02:20:59.050Z,91.8
2017-08-23T02:21:58.259Z,91.7
2017-08-23T02:22:57.450Z,91.8
2017-08-23T02:23:56.646Z,91.7
2017-08-23T02:24:56.102Z,91.9
2017-08-23T02:25:55.304Z,91.8
2017-08-23T02:26:54.510Z,91.6
2017-08-23T02:27:53.712Z,91.9
2017-08-23T02:28:52.919Z,92.1
2017-08-23T02:29:52.129Z,92.3
2017-08-23T02:30:51.337Z,92.2
2017-08-23T02:31:50.050Z,92.4
2017-08-23T02:32:49.387Z,92.3
2017-08-23T02:33:48.495Z,92.1
2017-08-23T02:34:47.589Z,92
2017-08-23T02:35:46.650Z,92
2017-08-23T02:36:46.338Z,92.2
2017-08-23T02:37:45.526Z,92
2017-08-23T02:38:44.727Z,91.9
2017-08-23T02:39:43.800Z,92.1
2017-08-23T02:40:14.192Z,92.1
2017-08-23T02:40:44.577Z,92.1
2017-08-23T02:41:42.134Z,92
2017-08-23T02:42:41.091Z,91.8
2017-08-23T02:43:40.574Z,91.9
2017-08-23T02:44:39.642Z,91.7
2017-08-23T02:45:38.831Z,91.6
2017-08-23T02:46:37.943Z,91.5
2017-08-23T02:47:37.014Z,91.6
2017-08-23T02:48:36.209Z,91.7
2017-08-23T02:49:35.282Z,91.7
2017-08-23T02:50:34.465Z,91.7
2017-08-23T02:51:34.037Z,91.8
2017-08-23T02:52:33.227Z,92.1
2017-08-23T02:53:32.405Z,92.1
2017-08-23T02:54:31.384Z,91.9
2017-08-23T02:55:30.575Z,91.7
2017-08-23T02:56:29.756Z,91.6
2017-08-23T02:57:28.821Z,91.6
2017-08-23T02:58:27.894Z,91.6
2017-08-23T02:59:27.079Z,91.5
2017-08-23T03:00:26.265Z,91.7
2017-08-23T03:01:25.441Z,91.6
2017-08-23T03:02:24.632Z,91.5
2017-08-23T03:03:23.827Z,91.3
2017-08-23T03:04:23.016Z,91.6
2017-08-23T03:05:22.082Z,91.8
2017-08-23T03:06:21.639Z,91.9
2017-08-23T03:07:20.713Z,91.9
2017-08-23T03:08:19.661Z,92
2017-08-23T03:09:18.834Z,92.3
2017-08-23T03:10:18.033Z,92.2
2017-08-23T03:11:17.604Z,92.4
2017-08-23T03:12:16.666Z,92.3
2017-08-23T03:13:15.850Z,92.5
2017-08-23T03:14:14.806Z,92.4
2017-08-23T03:15:13.998Z,92.4
2017-08-23T03:16:13.191Z,92.3
2017-08-23T03:17:12.646Z,92.1
2017-08-23T03:18:11.842Z,92.2
2017-08-23T03:19:10.921Z,92.8
2017-08-23T03:20:10.098Z,92.8
2017-08-23T03:21:09.037Z,92.6
2017-08-23T03:22:08.489Z,92.5
2017-08-23T03:23:07.677Z,92.4
2017-08-23T03:24:06.752Z,92.3
2017-08-23T03:25:05.949Z,92.1
2017-08-23T03:26:04.899Z,91.9
2017-08-23T03:27:03.966Z,91.8
2017-08-23T03:28:03.407Z,91.7
2017-08-23T03:29:02.582Z,91.7
2017-08-23T03:30:01.776Z,91.7
2017-08-23T03:31:00.987Z,92
2017-08-23T03:32:00.188Z,92.1
2017-08-23T03:32:59.268Z,92
2017-08-23T03:33:58.334Z,92.1
2017-08-23T03:34:57.519Z,92.1
2017-08-23T03:35:56.697Z,92.1
2017-08-23T03:36:55.894Z,92
2017-08-23T03:37:55.070Z,92.1
2017-08-23T03:38:54.153Z,92.2
2017-08-23T03:39:53.216Z,92.2
2017-08-23T03:40:52.778Z,92.1
2017-08-23T03:41:51.859Z,92.4
2017-08-23T03:43:49.922Z,92.8
2017-08-23T03:44:49.498Z,92.6
2017-08-23T03:45:48.682Z,92.4
2017-08-23T03:46:47.877Z,92.3
2017-08-23T03:47:47.062Z,92.4
2017-08-23T03:48:46.247Z,92.5
2017-08-23T03:49:44.809Z,92.7
2017-08-23T03:50:44.519Z,92.9
2017-08-23T03:51:43.592Z,93
2017-08-23T03:52:42.538Z,93
2017-08-23T03:53:41.983Z,93
2017-08-23T03:54:41.178Z,93
2017-08-23T03:55:40.370Z,92.9
2017-08-23T03:56:39.446Z,92.9
2017-08-23T03:57:38.515Z,92.9
2017-08-23T03:58:37.570Z,93.2
2017-08-23T03:59:36.755Z,92.9
2017-08-23T04:00:35.941Z,92.8
2017-08-23T04:01:35.015Z,92.8
2017-08-23T04:02:34.112Z,92.8
2017-08-23T04:03:33.554Z,93.2
2017-08-23T04:04:32.639Z,93.7
2017-08-23T04:05:31.817Z,94
2017-08-23T04:06:30.999Z,94
2017-08-23T04:07:30.063Z,94.1
2017-08-23T04:08:29.250Z,94
2017-08-23T04:09:28.435Z,94.2
2017-08-23T04:10:27.626Z,94.1
2017-08-23T04:11:26.832Z,94.1
2017-08-23T04:12:25.912Z,94
2017-08-23T04:13:25.092Z,94.1
2017-08-23T04:14:24.281Z,94
2017-08-23T04:15:23.461Z,94.1
2017-08-23T04:16:22.526Z,94.1
2017-08-23T04:17:22.113Z,94.2
2017-08-23T04:18:21.183Z,94.3
2017-08-23T04:19:20.376Z,94.2
2017-08-23T04:20:19.334Z,94.1
2017-08-23T04:21:18.538Z,94.7
2017-08-23T04:22:17.723Z,94.6
2017-08-23T04:23:16.795Z,94.8
2017-08-23T04:24:16.237Z,94.5
2017-08-23T04:25:15.410Z,94.4
2017-08-23T04:26:14.589Z,94.3
2017-08-23T04:27:13.551Z,94.3
2017-08-23T04:28:12.741Z,94.3
2017-08-23T04:29:11.819Z,94.3
2017-08-23T04:30:11.059Z,94.3
2017-08-23T04:31:10.251Z,94.3
2017-08-23T04:32:09.189Z,94.4
2017-08-23T04:33:08.528Z,94.4
2017-08-23T04:34:07.598Z,94.4
2017-08-23T04:35:06.797Z,94.3
2017-08-23T04:36:06.381Z,94.5
2017-08-23T04:38:04.721Z,94.4
2017-08-23T04:39:03.788Z,94.3
2017-08-23T04:40:02.868Z,94.2
2017-08-23T04:41:01.829Z,94.2
2017-08-23T04:42:01.409Z,94.1
2017-08-23T04:43:00.475Z,94
2017-08-23T04:43:59.560Z,93.9
2017-08-23T04:44:58.742Z,93.7
2017-08-23T04:45:57.806Z,93.7
2017-08-23T04:46:56.981Z,93.7
2017-08-23T04:47:56.046Z,93.7
2017-08-23T04:48:55.113Z,93.6
2017-08-23T04:50:53.692Z,93.6
2017-08-23T04:51:52.874Z,93.5
2017-08-23T04:52:51.945Z,93.4
2017-08-23T04:53:51.123Z,93.3
2017-08-23T04:54:50.197Z,93.2
2017-08-23T04:55:49.388Z,93.1
2017-08-23T04:56:48.961Z,93.1
2017-08-23T04:57:48.051Z,93.1
2017-08-23T04:58:47.136Z,93.1
2017-08-23T04:59:46.319Z,92.9
2017-08-23T05:00:45.498Z,92.8
2017-08-23T05:01:44.673Z,92.8
2017-08-23T05:02:43.866Z,92.8
2017-08-23T05:03:42.824Z,92.9
2017-08-23T05:04:42.290Z,93
2017-08-23T05:05:41.358Z,93.2
2017-08-23T05:07:39.428Z,93.4
2017-08-23T05:08:38.998Z,93.4
2017-08-23T05:09:38.179Z,93.7
2017-08-23T05:10:36.744Z,93.7
2017-08-23T05:11:36.438Z,93.7
2017-08-23T05:12:35.378Z,93.7
2017-08-23T05:13:34.571Z,93.7
2017-08-23T05:14:33.631Z,93.9
2017-08-23T05:15:33.205Z,93.9
2017-08-23T05:16:32.287Z,93.9
2017-08-23T05:17:31.499Z,94.1
2017-08-23T05:18:30.684Z,94.2
2017-08-23T05:19:29.742Z,94.5
2017-08-23T05:20:28.929Z,94.7
2017-08-23T05:21:28.122Z,94.3
2017-08-23T05:22:27.194Z,94.5
2017-08-23T05:23:26.394Z,94.4
2017-08-23T05:24:25.464Z,94.4
2017-08-23T05:25:24.649Z,94.4
2017-08-23T05:26:23.833Z,94.3
2017-08-23T05:27:23.027Z,94.4
2017-08-23T05:28:22.212Z,94.3
2017-08-23T05:29:21.282Z,94.4
2017-08-23T05:30:20.469Z,94.3
2017-08-23T05:31:19.544Z,94.9
2017-08-23T05:32:18.724Z,94.7
2017-08-23T05:33:17.911Z,94.7
2017-08-23T05:34:17.103Z,95.1
2017-08-23T05:34:47.481Z,95.1
2017-08-23T05:35:17.919Z,95
2017-08-23T05:35:48.408Z,95
2017-08-23T05:36:18.788Z,95
2017-08-23T05:36:49.172Z,95
2017-08-23T05:37:19.438Z,95
2017-08-23T05:38:14.104Z,95
2017-08-23T05:39:13.178Z,94.9
2017-08-23T05:40:12.242Z,95.1
2017-08-23T05:41:11.313Z,95.1
2017-08-23T05:42:10.379Z,95.4
2017-08-23T05:43:09.950Z,95.3
2017-08-23T05:44:08.915Z,95.3
2017-08-23T05:45:08.095Z,95.2
2017-08-23T05:47:06.573Z,95.2
2017-08-23T05:48:05.759Z,95.2
2017-08-23T05:49:04.727Z,95.3
2017-08-23T05:50:03.912Z,95
2017-08-23T05:51:03.116Z,95.1
2017-08-23T05:52:02.187Z,95.1
2017-08-23T05:53:01.646Z,95.1
2017-08-23T05:54:00.850Z,95.1
2017-08-23T05:54:59.935Z,95.1
2017-08-23T05:55:58.761Z,95.3
2017-08-23T05:56:57.946Z,95.2
2017-08-23T05:57:57.518Z,95.2
2017-08-23T05:58:56.703Z,95.1
2017-08-23T05:59:55.774Z,95.1
2017-08-23T06:00:54.719Z,95
2017-08-23T06:01:54.168Z,94.9
2017-08-23T06:02:53.353Z,95
2017-08-23T06:03:52.538Z,95.1
2017-08-23T06:04:51.727Z,94.9
2017-08-23T06:05:50.916Z,94.8
2017-08-23T06:06:50.107Z,94.7
2017-08-23T06:07:49.164Z,94.4
2017-08-23T06:08:48.239Z,94.4
2017-08-23T06:09:47.429Z,94.5
2017-08-23T06:10:46.624Z,94.6
2017-08-23T06:11:45.803Z,94.6
2017-08-23T06:12:44.985Z,94.6
2017-08-23T06:13:44.185Z,94.5
2017-08-23T06:15:42.761Z,94.4
2017-08-23T06:16:41.945Z,94.5
2017-08-23T06:17:40.631Z,94.4
2017-08-23T06:18:39.824Z,94.2
2017-08-23T06:19:39.022Z,94.3
2017-08-23T06:20:38.206Z,94.4
2017-08-23T06:21:37.773Z,94.2
2017-08-23T06:22:36.851Z,94.2
2017-08-23T06:23:36.034Z,94.1
2017-08-23T06:24:35.089Z,94
2017-08-23T06:25:34.555Z,94
2017-08-23T06:26:33.624Z,94
2017-08-23T06:27:32.687Z,93.8
2017-08-23T06:28:31.866Z,93.2
2017-08-23T06:29:30.927Z,93.1
2017-08-23T06:30:30.110Z,93
2017-08-23T06:31:29.678Z,92.9
2017-08-23T06:32:28.748Z,93
2017-08-23T06:33:27.939Z,92.7
2017-08-23T06:34:27.123Z,92.4
2017-08-23T06:35:26.200Z,92.3
2017-08-23T06:36:25.286Z,92.1
2017-08-23T06:37:24.350Z,91.9
2017-08-23T06:38:23.924Z,91.7
2017-08-23T06:40:22.001Z,90.3
2017-08-23T06:42:20.592Z,89.7
2017-08-23T06:43:19.778Z,90
2017-08-23T06:44:18.844Z,89.8
2017-08-23T06:45:18.028Z,89.7
2017-08-23T06:46:17.241Z,89.9
2017-08-23T06:47:16.428Z,90.1
2017-08-23T06:48:15.628Z,90.1
2017-08-23T06:49:14.827Z,89.8
2017-08-23T06:50:13.905Z,90
2017-08-23T06:52:12.372Z,89.9
2017-08-23T06:53:11.455Z,89.9
2017-08-23T06:54:10.649Z,90
2017-08-23T06:55:10.223Z,90.1
2017-08-23T06:56:09.432Z,89.8
2017-08-23T06:57:08.504Z,89.4
2017-08-23T06:58:07.711Z,89.2
2017-08-23T06:59:06.555Z,89.2
2017-08-23T07:00:05.629Z,89.1
2017-08-23T07:01:05.168Z,88.9
2017-08-23T07:02:04.503Z,88.9
2017-08-23T07:03:03.459Z,88.8
2017-08-23T07:04:02.655Z,89.3
2017-08-23T07:05:01.726Z,89.2
2017-08-23T07:06:01.312Z,89
2017-08-23T07:07:00.371Z,88.9
2017-08-23T07:07:59.447Z,88.7
2017-08-23T07:08:58.519Z,88.8
2017-08-23T07:09:58.088Z,88.7
2017-08-23T07:10:57.055Z,88.6
2017-08-23T07:11:56.121Z,88.2
2017-08-23T07:12:55.312Z,87.9
2017-08-23T07:13:54.520Z,87.8
2017-08-23T07:14:53.969Z,87.8
2017-08-23T07:15:53.157Z,87.9
2017-08-23T07:16:52.355Z,87.3
2017-08-23T07:17:51.698Z,87
2017-08-23T07:18:50.880Z,86
2017-08-23T07:19:50.081Z,86.1
2017-08-23T07:21:48.153Z,86
2017-08-23T07:22:18.524Z,86
2017-08-23T07:23:46.909Z,85.7
2017-08-23T07:24:46.094Z,85.5
2017-08-23T07:25:45.274Z,85
2017-08-23T07:27:43.861Z,84
2017-08-23T07:28:42.600Z,83.7
2017-08-23T07:29:42.302Z,83.5
2017-08-23T07:30:41.367Z,83.5
2017-08-23T07:31:40.549Z,83.1
2017-08-23T07:32:39.732Z,82.3
2017-08-23T07:33:38.924Z,79.3
2017-08-23T07:34:38.134Z,80
2017-08-23T07:35:37.209Z,80.2
2017-08-23T07:36:36.406Z,79.2
2017-08-23T07:37:35.586Z,79.2
2017-08-23T07:38:35.050Z,79.1
2017-08-23T07:39:34.120Z,79.6
2017-08-23T07:40:33.195Z,79.7
2017-08-23T07:41:32.277Z,76.8
2017-08-23T07:43:31.229Z,77
2017-08-23T07:44:30.298Z,77.3
2017-08-23T07:45:29.630Z,78.3
2017-08-23T07:47:27.714Z,77.2
2017-08-23T07:48:27.294Z,77
2017-08-23T07:49:26.379Z,76.8
2017-08-23T07:50:25.563Z,77.3
2017-08-23T07:51:24.771Z,76.5
2017-08-23T07:52:24.115Z,76.4
2017-08-23T07:53:23.300Z,75.5
2017-08-23T07:54:22.477Z,74.7
2017-08-23T07:55:21.670Z,74.3
2017-08-23T07:56:20.858Z,74.4
2017-08-23T07:57:20.051Z,74.1
2017-08-23T07:58:19.116Z,74.4
2017-08-23T07:59:18.683Z,74.8
2017-08-23T08:00:17.772Z,73.6
2017-08-23T08:01:16.849Z,72.8
2017-08-23T08:02:16.030Z,71.4
2017-08-23T08:03:15.492Z,71.4
2017-08-23T08:04:14.566Z,71.8
2017-08-23T08:05:13.744Z,72
2017-08-23T08:06:12.953Z,72.9
2017-08-23T08:07:12.642Z,73.2
2017-08-23T08:08:11.832Z,71.5
2017-08-23T08:09:10.914Z,71.5
2017-08-23T08:10:09.982Z,71.8
2017-08-23T08:12:08.553Z,69.6
2017-08-23T08:13:08.012Z,71.5
2017-08-23T08:14:06.967Z,71.5
2017-08-23T08:15:05.912Z,70.3
2017-08-23T08:16:05.376Z,69.4
2017-08-23T08:17:04.957Z,69.4
2017-08-23T08:18:04.071Z,70.2
2017-08-23T08:19:03.137Z,71.2
2017-08-23T08:21:01.712Z,69
2017-08-23T08:22:00.910Z,68.5
2017-08-23T08:23:00.357Z,68.3
2017-08-23T08:23:59.418Z,66.9
2017-08-23T08:24:58.617Z,65.8
2017-08-23T08:25:58.077Z,65.4
2017-08-23T08:26:57.268Z,66.2
2017-08-23T08:27:56.337Z,66.2
2017-08-23T08:28:55.284Z,64.2
2017-08-23T08:29:54.868Z,65.4
2017-08-23T08:30:54.316Z,65.4
2017-08-23T08:31:53.501Z,66.1
2017-08-23T08:32:52.598Z,66.2
2017-08-23T08:33:51.781Z,65.3
2017-08-23T08:34:50.957Z,65.3
2017-08-23T08:35:50.151Z,65.5
2017-08-23T08:36:49.235Z,64.6
2017-08-23T08:37:48.714Z,63.9
2017-08-23T08:38:48.162Z,63.7
2017-08-23T08:39:47.351Z,64.3
2017-08-23T08:40:46.555Z,64.8
2017-08-23T08:41:45.750Z,64.3
2017-08-23T08:42:45.319Z,63.6
2017-08-23T08:43:44.502Z,64.5
2017-08-23T08:44:43.562Z,63.9
2017-08-23T08:45:42.621Z,63.6
2017-08-23T08:46:42.070Z,63.1
2017-08-23T08:47:41.085Z,64.6
2017-08-23T08:48:40.768Z,66.4
2017-08-23T08:49:39.949Z,64.3
2017-08-23T08:50:39.048Z,62.9
2017-08-23T08:51:38.622Z,62
2017-08-23T08:52:37.803Z,62.5
2017-08-23T08:53:36.864Z,62.4
2017-08-23T08:54:36.057Z,61.6
2017-08-23T08:55:35.242Z,60.8
2017-08-23T08:56:34.637Z,62.7
2017-08-23T08:57:33.705Z,61.3
2017-08-23T08:59:32.664Z,62.1
2017-08-23T09:00:31.624Z,62.1
2017-08-23T09:01:30.802Z,61
2017-08-23T09:02:30.259Z,60.2
2017-08-23T09:03:29.725Z,55.9
2017-08-23T09:05:28.078Z,58.6
2017-08-23T09:06:27.528Z,56.6
2017-08-23T09:07:26.729Z,56.6
2017-08-23T09:08:25.939Z,56.2
2017-08-23T09:09:25.125Z,57.3
2017-08-23T09:10:24.329Z,58.3
2017-08-23T09:11:23.522Z,58.7
2017-08-23T09:12:22.724Z,56.7
2017-08-23T09:13:21.926Z,56.7
2017-08-23T09:14:21.262Z,56.3
2017-08-23T09:15:20.954Z,56.6
2017-08-23T09:16:20.161Z,57.5
2017-08-23T09:17:19.336Z,56.5
2017-08-23T09:18:18.383Z,56.1
2017-08-23T09:19:17.945Z,56.5
2017-08-23T09:20:16.889Z,56.1
2017-08-23T09:21:16.345Z,54.6
2017-08-23T09:22:15.820Z,56.2
2017-08-23T09:23:14.675Z,51.4
2017-08-23T09:24:14.362Z,50.6
2017-08-23T09:25:13.440Z,51.3
2017-08-23T09:26:12.907Z,50.7
2017-08-23T09:27:11.969Z,53.5
2017-08-23T09:28:11.146Z,52.8
2017-08-23T09:29:10.830Z,53.4
2017-08-23T09:30:09.897Z,52.8
2017-08-23T09:31:08.953Z,51.9
2017-08-23T09:32:08.408Z,53.5
2017-08-23T09:33:07.603Z,53.7
2017-08-23T09:34:06.806Z,54.7
2017-08-23T09:35:06.306Z,55.5
2017-08-23T09:36:05.368Z,56.2
2017-08-23T09:37:04.951Z,55
2017-08-23T09:38:04.411Z,56
2017-08-23T09:38:34.915Z,56
2017-08-23T09:39:05.297Z,54.9
2017-08-23T09:40:02.748Z,55.5
2017-08-23T09:41:02.211Z,54.5
2017-08-23T09:42:01.409Z,54.8
2017-08-23T09:43:00.477Z,55
2017-08-23T09:43:59.677Z,55.6
2017-08-23T09:44:59.255Z,56.2
2017-08-23T09:45:58.205Z,56
2017-08-23T09:47:57.290Z,54.7
2017-08-23T09:48:56.354Z,55.9
2017-08-23T09:49:55.539Z,55.3
2017-08-23T09:50:55.105Z,56
2017-08-23T09:51:54.053Z,56.4
2017-08-23T09:52:53.728Z,55.7
2017-08-23T09:53:52.910Z,54.3
2017-08-23T09:54:51.865Z,55.4
2017-08-23T09:55:51.449Z,55.8
2017-08-23T09:56:50.522Z,56.8
2017-08-23T09:57:50.095Z,55.8
2017-08-23T09:58:49.279Z,55.2
2017-08-23T09:59:48.730Z,53
2017-08-23T10:00:47.919Z,55.2
2017-08-23T10:01:46.988Z,55.8
2017-08-23T10:02:46.685Z,56.3
2017-08-23T10:03:45.762Z,56.2
2017-08-23T10:04:44.857Z,58.2
2017-08-23T10:05:44.209Z,55.7
2017-08-23T10:06:43.890Z,53.7
2017-08-23T10:07:42.835Z,53.3
2017-08-23T10:08:42.030Z,54.1
2017-08-23T10:09:41.481Z,54.8
2017-08-23T10:10:40.656Z,55.5
2017-08-23T10:11:40.232Z,56.3
2017-08-23T10:12:39.458Z,54.6
2017-08-23T10:13:38.652Z,52.9
2017-08-23T10:14:37.843Z,53.1
2017-08-23T10:15:37.287Z,52.3
2017-08-23T10:16:36.741Z,52.8
2017-08-23T10:17:35.941Z,52.2
2017-08-23T10:18:35.385Z,52
2017-08-23T10:19:34.340Z,52.9
2017-08-23T10:20:33.907Z,54.5
2017-08-23T10:21:33.246Z,53.7
2017-08-23T10:22:32.599Z,53.8
2017-08-23T10:23:31.681Z,53.2
2017-08-23T10:24:31.146Z,54.8
2017-08-23T10:25:30.476Z,56.1
2017-08-23T10:26:29.574Z,54.5
2017-08-23T10:27:28.905Z,52.6
2017-08-23T10:28:28.366Z,54.4
2017-08-23T10:29:27.542Z,54.1
2017-08-23T10:30:27.122Z,54.2
2017-08-23T10:32:25.707Z,55.3
2017-08-23T10:33:24.767Z,53.3
2017-08-23T10:34:23.843Z,51.1
2017-08-23T10:35:23.294Z,50.7
2017-08-23T10:36:22.982Z,50.9
2017-08-23T10:37:22.043Z,50.8
2017-08-23T10:38:21.124Z,51.6
2017-08-23T10:39:20.820Z,52
2017-08-23T10:40:20.152Z,52.8
2017-08-23T10:41:19.222Z,52.4
2017-08-23T10:42:18.785Z,52.1
2017-08-23T10:43:17.893Z,52.1
2017-08-23T10:44:17.079Z,53
2017-08-23T10:45:16.541Z,54.8
2017-08-23T10:46:15.888Z,52.3
2017-08-23T10:47:14.953Z,52.7
2017-08-23T10:49:13.916Z,51.2
2017-08-23T10:50:13.110Z,51.2
2017-08-23T10:51:12.303Z,50.6
2017-08-23T10:52:11.998Z,51.6
2017-08-23T10:53:10.956Z,52.2
2017-08-23T10:54:10.542Z,50
2017-08-23T10:55:09.493Z,48.2
2017-08-23T10:56:09.074Z,48.3
2017-08-23T10:57:08.257Z,49.3
2017-08-23T10:58:07.335Z,49.3
2017-08-23T10:59:06.910Z,50.6
2017-08-23T11:00:06.103Z,48.7
2017-08-23T11:01:05.805Z,47.3
2017-08-23T11:02:04.878Z,48
2017-08-23T11:03:04.327Z,48.5
2017-08-23T11:04:03.410Z,47.9
2017-08-23T11:05:02.878Z,48.4
2017-08-23T11:06:01.936Z,49.5
2017-08-23T11:07:01.267Z,50.2
2017-08-23T11:08:00.750Z,50.4
2017-08-23T11:08:59.933Z,50.7
2017-08-23T11:09:59.506Z,51.2
2017-08-23T11:10:58.610Z,50.8
2017-08-23T11:11:58.304Z,50.7
2017-08-23T11:12:57.504Z,50
2017-08-23T11:13:56.581Z,49.2
2017-08-23T11:14:56.153Z,49
2017-08-23T11:15:55.338Z,50.3
2017-08-23T11:17:53.908Z,50.3
2017-08-23T11:18:53.090Z,48.8
2017-08-23T11:19:52.778Z,47.5
2017-08-23T11:20:23.285Z,47.5
2017-08-23T11:20:53.791Z,49.3
2017-08-23T11:21:51.343Z,47.2
2017-08-23T11:22:50.418Z,48.8
2017-08-23T11:25:48.786Z,50.6
2017-08-23T11:26:47.860Z,49.3
2017-08-23T11:27:47.299Z,48.4
2017-08-23T11:28:46.767Z,49.7
2017-08-23T11:29:45.837Z,49.9
2017-08-23T11:30:45.298Z,49.5
2017-08-23T11:31:44.356Z,49.7
2017-08-23T11:32:43.823Z,49.7
2017-08-23T11:33:42.908Z,49.6
2017-08-23T11:34:42.592Z,48.9
2017-08-23T11:36:41.167Z,47.4
2017-08-23T11:37:40.734Z,47.5
2017-08-23T11:38:39.924Z,47.1
2017-08-23T11:39:39.107Z,47.8
2017-08-23T11:40:38.670Z,47.6
2017-08-23T11:41:38.137Z,45.5
2017-08-23T11:43:36.604Z,46.6
2017-08-23T11:44:35.684Z,45.9
2017-08-23T11:46:34.410Z,45.3
2017-08-23T11:47:33.882Z,45.3
2017-08-23T11:48:33.576Z,44.2
2017-08-23T11:49:32.757Z,45.5
2017-08-23T11:50:31.829Z,46.4
2017-08-23T11:51:31.522Z,46.2
2017-08-23T11:53:29.858Z,45.2
2017-08-23T11:54:29.366Z,43.6
2017-08-23T11:55:28.701Z,45.1
2017-08-23T11:56:28.163Z,46.4
2017-08-23T11:57:27.239Z,46.2
2017-08-23T11:58:26.840Z,47.4
2017-08-23T11:59:26.190Z,46.3
2017-08-23T12:00:25.753Z,45.8
2017-08-23T12:01:24.818Z,42.9
2017-08-23T12:02:24.013Z,42.8
2017-08-23T12:04:23.095Z,41.4
2017-08-23T12:05:22.171Z,40.3
2017-08-23T12:06:21.741Z,39.9
2017-08-23T12:07:20.817Z,42
2017-08-23T12:08:20.495Z,41.3
2017-08-23T12:09:19.571Z,41.1
2017-08-23T12:10:19.260Z,40.4
2017-08-23T12:11:18.450Z,41.6
2017-08-23T12:12:17.645Z,42.5
2017-08-23T12:13:17.225Z,40.6
2017-08-23T12:14:16.673Z,43
2017-08-23T12:15:15.750Z,44.7
2017-08-23T12:16:15.350Z,41.8
2017-08-23T12:17:14.811Z,41.3
2017-08-23T12:18:13.886Z,41.3
2017-08-23T12:19:13.468Z,43.7
2017-08-23T12:20:12.545Z,41.7
2017-08-23T12:21:12.106Z,43.8
2017-08-23T12:22:11.686Z,43.7
2017-08-23T12:23:10.869Z,42
2017-08-23T12:24:09.947Z,39
2017-08-23T12:25:09.524Z,40.1
2017-08-23T12:26:08.851Z,39.7
2017-08-23T12:27:08.539Z,40.9
2017-08-23T12:28:07.716Z,43
2017-08-23T12:29:06.902Z,40
2017-08-23T12:30:06.484Z,40.3
2017-08-23T12:31:05.670Z,40.1
2017-08-23T12:33:04.766Z,40.5
2017-08-23T12:34:03.988Z,40.8
2017-08-23T12:35:03.172Z,41.3
2017-08-23T12:36:02.876Z,40.3
2017-08-23T12:37:02.079Z,39.3
2017-08-23T12:38:01.654Z,40.5
2017-08-23T12:39:00.844Z,41.5
2017-08-23T12:40:00.535Z,41.6
2017-08-23T12:40:59.617Z,42.4
2017-08-23T12:41:59.298Z,42.6
2017-08-23T12:42:58.477Z,39.4
2017-08-23T12:43:57.543Z,38.7
2017-08-23T12:44:57.495Z,38.8
2017-08-23T12:45:56.498Z,39.6
2017-08-23T12:46:56.188Z,37.9
2017-08-23T12:47:55.377Z,40.2
2017-08-23T12:48:55.090Z,41
2017-08-23T12:49:54.033Z,40.2
2017-08-23T12:50:53.478Z,41.3
2017-08-23T12:51:52.818Z,40.8
2017-08-23T12:52:52.146Z,42.6
2017-08-23T12:53:51.849Z,39.6
2017-08-23T12:54:51.045Z,39
2017-08-23T12:55:50.617Z,39.1
2017-08-23T12:56:49.810Z,36.8
2017-08-23T12:57:49.389Z,39.5
2017-08-23T12:58:48.832Z,38.5
2017-08-23T12:59:48.410Z,36.7
2017-08-23T13:00:47.498Z,37.2
2017-08-23T13:01:47.078Z,39.8
2017-08-23T13:02:46.267Z,39.1
2017-08-23T13:03:45.716Z,38.6
2017-08-23T13:04:45.395Z,37.9
2017-08-23T13:05:44.855Z,38.3
2017-08-23T13:06:43.916Z,39.3
2017-08-23T13:07:43.360Z,37.7
2017-08-23T13:08:14.124Z,37.7
2017-08-23T13:08:44.630Z,36.9
2017-08-23T13:09:15.018Z,36.9
2017-08-23T13:12:40.559Z,36.8
2017-08-23T13:13:39.652Z,35.7
2017-08-23T13:14:39.790Z,35.7
2017-08-23T13:15:38.863Z,34.1
2017-08-23T13:16:37.812Z,34.6
2017-08-23T13:17:37.492Z,34.4
2017-08-23T13:18:37.181Z,33.9
2017-08-23T13:19:36.261Z,35.5
2017-08-23T13:20:35.832Z,35.2
2017-08-23T13:21:35.465Z,35.3
2017-08-23T13:22:34.796Z,37.1
2017-08-23T13:23:33.853Z,34.3
2017-08-23T13:24:33.292Z,34.3
2017-08-23T13:25:32.979Z,34.8
2017-08-23T13:26:32.540Z,34.9
2017-08-23T13:27:31.723Z,35
2017-08-23T13:28:31.309Z,36.1
2017-08-23T13:29:30.519Z,35
2017-08-23T13:30:30.201Z,35
2017-08-23T13:31:29.393Z,37.1
2017-08-23T13:32:29.083Z,37.9
2017-08-23T13:33:28.161Z,37.3
2017-08-23T13:34:27.850Z,34.9
2017-08-23T13:35:27.005Z,34.5
2017-08-23T13:36:26.583Z,33.5
2017-08-23T13:37:25.640Z,33.7
2017-08-23T13:38:25.330Z,35.7
2017-08-23T13:39:24.897Z,37.3
2017-08-23T13:40:24.081Z,34.5
2017-08-23T13:41:23.781Z,33.5